sensor_id;sensor_type;location;lat;lon;timestamp;temperature;humidity
37300;DHT22;23184;51.902;12.836;2023-04-19T00:02:23;7.60;99.90
37300;DHT22;23184;51.902;12.836;2023-04-19T00:04:49;7.60;99.90
37300;DHT22;23184;51.902;12.836;2023-04-19T00:07:15;7.50;99.90
37300;DHT22;23184;51.902;12.836;2023-04-19T00:09:42;7.50;99.90
37300;DHT22;23184;51.902;12.836;2023-04-19T00:12:08;7.50;99.90
37300;DHT22;23184;51.902;12.836;2023-04-19T00:14:34;7.40;99.90
37300;DHT22;23184;51.902;12.836;2023-04-19T00:16:59;7.40;99.90
37300;DHT22;23184;51.902;12.836;2023-04-19T00:19:25;7.40;99.90
37300;DHT22;23184;51.902;12.836;2023-04-19T00:21:51;7.30;99.90
37300;DHT22;23184;51.902;12.836;2023-04-19T00:24:17;7.30;99.90
37300;DHT22;23184;51.902;12.836;2023-04-19T00:26:42;7.30;99.90
37300;DHT22;23184;51.902;12.836;2023-04-19T00:29:08;7.20;99.90
37300;DHT22;23184;51.902;12.836;2023-04-19T00:31:34;7.20;99.90
37300;DHT22;23184;51.902;12.836;2023-04-19T00:33:59;7.20;99.90
37300;DHT22;23184;51.902;12.836;2023-04-19T00:36:25;7.20;99.90
37300;DHT22;23184;51.902;12.836;2023-04-19T00:38:51;7.10;99.90
37300;DHT22;23184;51.902;12.836;2023-04-19T00:41:17;7.10;99.90
37300;DHT22;23184;51.902;12.836;2023-04-19T00:43:42;7.10;99.90
37300;DHT22;23184;51.902;12.836;2023-04-19T00:46:08;7.10;99.90
37300;DHT22;23184;51.902;12.836;2023-04-19T00:48:33;7.00;99.90
37300;DHT22;23184;51.902;12.836;2023-04-19T00:51:02;7.00;99.90
37300;DHT22;23184;51.902;12.836;2023-04-19T00:53:28;7.00;99.90
37300;DHT22;23184;51.902;12.836;2023-04-19T00:55:56;7.00;99.90
37300;DHT22;23184;51.902;12.836;2023-04-19T00:58:22;7.00;99.90
37300;DHT22;23184;51.902;12.836;2023-04-19T01:00:47;6.90;99.90
37300;DHT22;23184;51.902;12.836;2023-04-19T01:03:13;6.90;99.90
37300;DHT22;23184;51.902;12.836;2023-04-19T01:05:39;6.90;99.90
37300;DHT22;23184;51.902;12.836;2023-04-19T01:08:04;6.90;99.90
37300;DHT22;23184;51.902;12.836;2023-04-19T01:10:30;6.80;99.90
37300;DHT22;23184;51.902;12.836;2023-04-19T01:12:56;6.80;99.90
37300;DHT22;23184;51.902;12.836;2023-04-19T01:15:21;6.80;99.90
37300;DHT22;23184;51.902;12.836;2023-04-19T01:17:47;6.70;99.90
37300;DHT22;23184;51.902;12.836;2023-04-19T01:20:13;6.70;99.90
37300;DHT22;23184;51.902;12.836;2023-04-19T01:22:38;6.70;99.90
37300;DHT22;23184;51.902;12.836;2023-04-19T01:25:05;6.70;99.90
37300;DHT22;23184;51.902;12.836;2023-04-19T01:27:31;6.70;99.90
37300;DHT22;23184;51.902;12.836;2023-04-19T01:29:56;6.60;99.90
37300;DHT22;23184;51.902;12.836;2023-04-19T01:32:22;6.60;99.90
37300;DHT22;23184;51.902;12.836;2023-04-19T01:34:50;6.60;99.90
37300;DHT22;23184;51.902;12.836;2023-04-19T01:37:16;6.60;99.90
37300;DHT22;23184;51.902;12.836;2023-04-19T01:39:41;6.60;99.90
37300;DHT22;23184;51.902;12.836;2023-04-19T01:42:07;6.50;99.90
37300;DHT22;23184;51.902;12.836;2023-04-19T01:44:32;6.50;99.90
37300;DHT22;23184;51.902;12.836;2023-04-19T01:46:58;6.50;99.90
37300;DHT22;23184;51.902;12.836;2023-04-19T01:49:23;6.50;99.90
37300;DHT22;23184;51.902;12.836;2023-04-19T01:51:49;6.50;99.90
37300;DHT22;23184;51.902;12.836;2023-04-19T01:54:14;6.50;99.90
37300;DHT22;23184;51.902;12.836;2023-04-19T01:56:40;6.60;99.90
37300;DHT22;23184;51.902;12.836;2023-04-19T01:59:05;6.60;99.90
37300;DHT22;23184;51.902;12.836;2023-04-19T02:01:31;6.60;99.90
37300;DHT22;23184;51.902;12.836;2023-04-19T02:03:56;6.60;99.90
37300;DHT22;23184;51.902;12.836;2023-04-19T02:06:22;6.60;99.90
37300;DHT22;23184;51.902;12.836;2023-04-19T02:08:47;6.60;99.90
37300;DHT22;23184;51.902;12.836;2023-04-19T02:11:13;6.60;99.90
37300;DHT22;23184;51.902;12.836;2023-04-19T02:13:39;6.60;99.90
37300;DHT22;23184;51.902;12.836;2023-04-19T02:16:05;6.60;99.90
37300;DHT22;23184;51.902;12.836;2023-04-19T02:18:31;6.60;99.90
37300;DHT22;23184;51.902;12.836;2023-04-19T02:21:00;6.60;99.90
37300;DHT22;23184;51.902;12.836;2023-04-19T02:23:26;6.60;99.90
37300;DHT22;23184;51.902;12.836;2023-04-19T02:25:52;6.60;99.90
37300;DHT22;23184;51.902;12.836;2023-04-19T02:28:17;6.60;99.90
37300;DHT22;23184;51.902;12.836;2023-04-19T02:30:43;6.60;99.90
37300;DHT22;23184;51.902;12.836;2023-04-19T02:33:08;6.60;99.90
37300;DHT22;23184;51.902;12.836;2023-04-19T02:35:34;6.60;99.90
37300;DHT22;23184;51.902;12.836;2023-04-19T02:38:01;6.50;99.90
37300;DHT22;23184;51.902;12.836;2023-04-19T02:40:26;6.50;99.90
37300;DHT22;23184;51.902;12.836;2023-04-19T02:42:52;6.50;99.90
37300;DHT22;23184;51.902;12.836;2023-04-19T02:45:17;6.40;99.90
37300;DHT22;23184;51.902;12.836;2023-04-19T02:47:43;6.40;99.90
37300;DHT22;23184;51.902;12.836;2023-04-19T02:50:10;6.40;99.90
37300;DHT22;23184;51.902;12.836;2023-04-19T02:52:36;6.30;99.90
37300;DHT22;23184;51.902;12.836;2023-04-19T02:55:02;6.30;99.90
37300;DHT22;23184;51.902;12.836;2023-04-19T02:57:29;6.30;99.90
37300;DHT22;23184;51.902;12.836;2023-04-19T02:59:54;6.20;99.90
37300;DHT22;23184;51.902;12.836;2023-04-19T03:02:20;6.20;99.90
37300;DHT22;23184;51.902;12.836;2023-04-19T03:04:45;6.20;99.90
37300;DHT22;23184;51.902;12.836;2023-04-19T03:07:11;6.10;99.90
37300;DHT22;23184;51.902;12.836;2023-04-19T03:09:37;6.10;99.90
37300;DHT22;23184;51.902;12.836;2023-04-19T03:12:03;6.00;99.90
37300;DHT22;23184;51.902;12.836;2023-04-19T03:14:29;6.00;99.90
37300;DHT22;23184;51.902;12.836;2023-04-19T03:16:54;5.90;99.90
37300;DHT22;23184;51.902;12.836;2023-04-19T03:19:20;5.90;99.90
37300;DHT22;23184;51.902;12.836;2023-04-19T03:21:46;5.80;99.90
37300;DHT22;23184;51.902;12.836;2023-04-19T03:24:11;5.80;99.90
37300;DHT22;23184;51.902;12.836;2023-04-19T03:26:37;5.70;99.90
37300;DHT22;23184;51.902;12.836;2023-04-19T03:29:02;5.70;99.90
37300;DHT22;23184;51.902;12.836;2023-04-19T03:31:27;5.60;99.90
37300;DHT22;23184;51.902;12.836;2023-04-19T03:33:53;5.60;99.90
37300;DHT22;23184;51.902;12.836;2023-04-19T03:36:19;5.50;99.90
37300;DHT22;23184;51.902;12.836;2023-04-19T03:38:44;5.50;99.90
37300;DHT22;23184;51.902;12.836;2023-04-19T03:43:45;5.40;99.90
37300;DHT22;23184;51.902;12.836;2023-04-19T03:46:10;5.40;99.90
37300;DHT22;23184;51.902;12.836;2023-04-19T03:48:36;5.20;99.90
37300;DHT22;23184;51.902;12.836;2023-04-19T03:51:01;5.20;99.90
37300;DHT22;23184;51.902;12.836;2023-04-19T03:53:26;5.20;99.90
37300;DHT22;23184;51.902;12.836;2023-04-19T03:55:52;5.10;99.90
37300;DHT22;23184;51.902;12.836;2023-04-19T03:58:17;5.10;99.90
37300;DHT22;23184;51.902;12.836;2023-04-19T04:00:43;5.10;99.90
37300;DHT22;23184;51.902;12.836;2023-04-19T04:03:08;5.00;99.90
37300;DHT22;23184;51.902;12.836;2023-04-19T04:05:34;5.00;99.90
37300;DHT22;23184;51.902;12.836;2023-04-19T04:07:59;4.90;99.90
37300;DHT22;23184;51.902;12.836;2023-04-19T04:10:25;4.90;99.90
37300;DHT22;23184;51.902;12.836;2023-04-19T04:12:50;4.90;99.90
37300;DHT22;23184;51.902;12.836;2023-04-19T04:15:16;4.90;99.90
37300;DHT22;23184;51.902;12.836;2023-04-19T04:17:42;4.80;99.90
37300;DHT22;23184;51.902;12.836;2023-04-19T04:20:07;4.80;99.90
37300;DHT22;23184;51.902;12.836;2023-04-19T04:22:34;4.80;99.90
37300;DHT22;23184;51.902;12.836;2023-04-19T04:24:59;4.80;99.90
37300;DHT22;23184;51.902;12.836;2023-04-19T04:27:26;4.70;99.90
37300;DHT22;23184;51.902;12.836;2023-04-19T04:29:51;4.70;99.90
37300;DHT22;23184;51.902;12.836;2023-04-19T04:32:17;4.70;99.90
37300;DHT22;23184;51.902;12.836;2023-04-19T04:34:47;4.70;99.90
37300;DHT22;23184;51.902;12.836;2023-04-19T04:37:12;4.70;99.90
37300;DHT22;23184;51.902;12.836;2023-04-19T04:39:38;4.70;99.90
37300;DHT22;23184;51.902;12.836;2023-04-19T04:42:05;4.70;99.90
37300;DHT22;23184;51.902;12.836;2023-04-19T04:44:36;4.70;99.90
37300;DHT22;23184;51.902;12.836;2023-04-19T04:47:01;4.70;99.90
37300;DHT22;23184;51.902;12.836;2023-04-19T04:49:28;4.70;99.90
37300;DHT22;23184;51.902;12.836;2023-04-19T04:51:53;4.70;99.90
37300;DHT22;23184;51.902;12.836;2023-04-19T04:54:18;4.70;99.90
37300;DHT22;23184;51.902;12.836;2023-04-19T04:56:44;4.70;99.90
37300;DHT22;23184;51.902;12.836;2023-04-19T04:59:09;4.70;99.90
37300;DHT22;23184;51.902;12.836;2023-04-19T05:01:35;4.70;99.90
37300;DHT22;23184;51.902;12.836;2023-04-19T05:04:01;4.70;99.90
37300;DHT22;23184;51.902;12.836;2023-04-19T05:06:26;4.70;99.90
37300;DHT22;23184;51.902;12.836;2023-04-19T05:08:51;4.70;99.90
37300;DHT22;23184;51.902;12.836;2023-04-19T05:11:17;4.70;99.90
37300;DHT22;23184;51.902;12.836;2023-04-19T05:13:43;4.70;99.90
37300;DHT22;23184;51.902;12.836;2023-04-19T05:16:08;4.80;99.90
37300;DHT22;23184;51.902;12.836;2023-04-19T05:18:34;4.80;99.90
37300;DHT22;23184;51.902;12.836;2023-04-19T05:20:59;4.80;99.90
37300;DHT22;23184;51.902;12.836;2023-04-19T05:23:25;4.80;99.90
37300;DHT22;23184;51.902;12.836;2023-04-19T05:25:50;4.90;99.90
37300;DHT22;23184;51.902;12.836;2023-04-19T05:28:16;4.90;99.90
37300;DHT22;23184;51.902;12.836;2023-04-19T05:30:41;4.90;99.90
37300;DHT22;23184;51.902;12.836;2023-04-19T05:33:06;5.00;99.90
37300;DHT22;23184;51.902;12.836;2023-04-19T05:35:32;5.00;99.90
37300;DHT22;23184;51.902;12.836;2023-04-19T05:37:57;5.00;99.90
37300;DHT22;23184;51.902;12.836;2023-04-19T05:40:23;5.10;99.90
37300;DHT22;23184;51.902;12.836;2023-04-19T05:42:49;5.10;99.90
37300;DHT22;23184;51.902;12.836;2023-04-19T05:45:15;5.20;99.90
37300;DHT22;23184;51.902;12.836;2023-04-19T05:47:41;5.20;99.90
37300;DHT22;23184;51.902;12.836;2023-04-19T05:50:06;5.30;99.90
37300;DHT22;23184;51.902;12.836;2023-04-19T05:52:32;5.30;99.90
37300;DHT22;23184;51.902;12.836;2023-04-19T05:54:58;5.40;99.90
37300;DHT22;23184;51.902;12.836;2023-04-19T05:57:23;5.50;99.90
37300;DHT22;23184;51.902;12.836;2023-04-19T05:59:50;5.50;99.90
37300;DHT22;23184;51.902;12.836;2023-04-19T06:02:16;5.60;99.90
37300;DHT22;23184;51.902;12.836;2023-04-19T06:04:41;5.70;99.90
37300;DHT22;23184;51.902;12.836;2023-04-19T06:07:07;5.80;99.90
37300;DHT22;23184;51.902;12.836;2023-04-19T06:09:32;5.90;99.90
37300;DHT22;23184;51.902;12.836;2023-04-19T06:11:58;6.00;99.90
37300;DHT22;23184;51.902;12.836;2023-04-19T06:14:26;6.30;99.90
37300;DHT22;23184;51.902;12.836;2023-04-19T06:16:51;6.40;99.90
37300;DHT22;23184;51.902;12.836;2023-04-19T06:19:17;6.60;99.90
37300;DHT22;23184;51.902;12.836;2023-04-19T06:21:43;6.80;99.90
37300;DHT22;23184;51.902;12.836;2023-04-19T06:24:08;6.90;99.90
37300;DHT22;23184;51.902;12.836;2023-04-19T06:26:34;7.00;99.90
37300;DHT22;23184;51.902;12.836;2023-04-19T06:28:59;7.20;99.90
37300;DHT22;23184;51.902;12.836;2023-04-19T06:31:25;7.30;99.90
37300;DHT22;23184;51.902;12.836;2023-04-19T06:33:51;7.50;99.90
37300;DHT22;23184;51.902;12.836;2023-04-19T06:36:16;7.70;99.90
37300;DHT22;23184;51.902;12.836;2023-04-19T06:38:42;7.90;99.90
37300;DHT22;23184;51.902;12.836;2023-04-19T06:41:09;8.20;99.90
37300;DHT22;23184;51.902;12.836;2023-04-19T06:43:34;8.40;99.90
37300;DHT22;23184;51.902;12.836;2023-04-19T06:46:01;8.50;99.90
37300;DHT22;23184;51.902;12.836;2023-04-19T06:48:27;8.60;99.90
37300;DHT22;23184;51.902;12.836;2023-04-19T06:50:53;8.90;99.90
37300;DHT22;23184;51.902;12.836;2023-04-19T06:53:19;9.10;99.90
37300;DHT22;23184;51.902;12.836;2023-04-19T06:55:45;9.40;99.90
37300;DHT22;23184;51.902;12.836;2023-04-19T06:58:10;9.40;99.90
37300;DHT22;23184;51.902;12.836;2023-04-19T07:00:36;9.70;99.90
37300;DHT22;23184;51.902;12.836;2023-04-19T07:03:02;10.00;99.90
37300;DHT22;23184;51.902;12.836;2023-04-19T07:05:28;10.00;99.90
37300;DHT22;23184;51.902;12.836;2023-04-19T07:07:54;10.40;99.90
37300;DHT22;23184;51.902;12.836;2023-04-19T07:10:19;10.50;99.90
37300;DHT22;23184;51.902;12.836;2023-04-19T07:12:45;10.60;99.90
37300;DHT22;23184;51.902;12.836;2023-04-19T07:15:11;10.80;99.90
37300;DHT22;23184;51.902;12.836;2023-04-19T07:17:36;11.00;99.90
37300;DHT22;23184;51.902;12.836;2023-04-19T07:20:03;11.30;99.90
37300;DHT22;23184;51.902;12.836;2023-04-19T07:22:30;11.50;99.90
37300;DHT22;23184;51.902;12.836;2023-04-19T07:24:55;11.60;99.90
37300;DHT22;23184;51.902;12.836;2023-04-19T07:27:21;11.80;99.90
37300;DHT22;23184;51.902;12.836;2023-04-19T07:29:46;11.60;99.90
37300;DHT22;23184;51.902;12.836;2023-04-19T07:32:11;11.60;99.90
37300;DHT22;23184;51.902;12.836;2023-04-19T07:34:39;12.00;99.90
37300;DHT22;23184;51.902;12.836;2023-04-19T07:37:05;12.30;99.90
37300;DHT22;23184;51.902;12.836;2023-04-19T07:39:31;12.60;99.90
37300;DHT22;23184;51.902;12.836;2023-04-19T07:41:57;12.80;99.90
37300;DHT22;23184;51.902;12.836;2023-04-19T07:44:22;12.90;99.90
37300;DHT22;23184;51.902;12.836;2023-04-19T07:46:48;13.10;99.90
37300;DHT22;23184;51.902;12.836;2023-04-19T07:49:14;13.20;99.90
37300;DHT22;23184;51.902;12.836;2023-04-19T07:51:39;13.40;99.90
37300;DHT22;23184;51.902;12.836;2023-04-19T07:54:05;13.80;98.60
37300;DHT22;23184;51.902;12.836;2023-04-19T07:56:31;13.90;97.20
37300;DHT22;23184;51.902;12.836;2023-04-19T07:58:58;14.00;96.40
37300;DHT22;23184;51.902;12.836;2023-04-19T08:01:24;14.10;95.20
37300;DHT22;23184;51.902;12.836;2023-04-19T08:03:50;14.30;92.90
37300;DHT22;23184;51.902;12.836;2023-04-19T08:06:15;14.30;92.90
37300;DHT22;23184;51.902;12.836;2023-04-19T08:08:42;14.50;91.60
37300;DHT22;23184;51.902;12.836;2023-04-19T08:11:07;15.00;91.80
37300;DHT22;23184;51.902;12.836;2023-04-19T08:13:33;15.20;88.50
37300;DHT22;23184;51.902;12.836;2023-04-19T08:15:58;15.20;86.60
37300;DHT22;23184;51.902;12.836;2023-04-19T08:18:24;15.40;85.30
37300;DHT22;23184;51.902;12.836;2023-04-19T08:20:50;15.40;85.80
37300;DHT22;23184;51.902;12.836;2023-04-19T08:23:16;15.40;83.50
37300;DHT22;23184;51.902;12.836;2023-04-19T08:25:42;15.20;84.60
37300;DHT22;23184;51.902;12.836;2023-04-19T08:28:07;15.30;81.80
37300;DHT22;23184;51.902;12.836;2023-04-19T08:30:33;15.80;84.70
37300;DHT22;23184;51.902;12.836;2023-04-19T08:32:59;16.10;82.60
37300;DHT22;23184;51.902;12.836;2023-04-19T08:35:25;16.40;80.70
37300;DHT22;23184;51.902;12.836;2023-04-19T08:37:51;16.60;79.00
37300;DHT22;23184;51.902;12.836;2023-04-19T08:40:17;16.80;76.20
37300;DHT22;23184;51.902;12.836;2023-04-19T08:42:43;16.90;74.80
37300;DHT22;23184;51.902;12.836;2023-04-19T08:45:08;17.00;75.10
37300;DHT22;23184;51.902;12.836;2023-04-19T08:47:38;17.30;76.00
37300;DHT22;23184;51.902;12.836;2023-04-19T08:50:05;17.40;70.20
37300;DHT22;23184;51.902;12.836;2023-04-19T08:52:33;17.00;73.40
37300;DHT22;23184;51.902;12.836;2023-04-19T08:55:07;17.30;73.80
37300;DHT22;23184;51.902;12.836;2023-04-19T08:57:34;17.50;70.20
37300;DHT22;23184;51.902;12.836;2023-04-19T09:00:00;17.50;70.40
37300;DHT22;23184;51.902;12.836;2023-04-19T09:02:26;17.20;69.00
37300;DHT22;23184;51.902;12.836;2023-04-19T09:04:52;17.40;66.80
37300;DHT22;23184;51.902;12.836;2023-04-19T09:07:25;17.60;68.60
37300;DHT22;23184;51.902;12.836;2023-04-19T09:10:07;17.50;67.30
37300;DHT22;23184;51.902;12.836;2023-04-19T09:12:34;17.40;65.80
37300;DHT22;23184;51.902;12.836;2023-04-19T09:15:00;18.00;66.50
37300;DHT22;23184;51.902;12.836;2023-04-19T09:17:28;18.20;64.60
37300;DHT22;23184;51.902;12.836;2023-04-19T09:19:54;18.50;62.80
37300;DHT22;23184;51.902;12.836;2023-04-19T09:22:19;18.60;61.70
37300;DHT22;23184;51.902;12.836;2023-04-19T09:24:45;18.80;62.40
37300;DHT22;23184;51.902;12.836;2023-04-19T09:27:11;19.30;61.20
37300;DHT22;23184;51.902;12.836;2023-04-19T09:29:37;19.20;59.80
37300;DHT22;23184;51.902;12.836;2023-04-19T09:32:02;19.70;58.60
37300;DHT22;23184;51.902;12.836;2023-04-19T09:34:29;19.10;59.50
37300;DHT22;23184;51.902;12.836;2023-04-19T09:36:55;18.60;59.80
37300;DHT22;23184;51.902;12.836;2023-04-19T09:39:33;18.50;59.90
37300;DHT22;23184;51.902;12.836;2023-04-19T09:42:00;18.80;59.20
37300;DHT22;23184;51.902;12.836;2023-04-19T09:44:26;19.10;58.60
37300;DHT22;23184;51.902;12.836;2023-04-19T09:46:53;19.10;59.90
37300;DHT22;23184;51.902;12.836;2023-04-19T09:49:22;19.70;58.80
37300;DHT22;23184;51.902;12.836;2023-04-19T09:51:52;19.10;58.40
37300;DHT22;23184;51.902;12.836;2023-04-19T09:54:19;18.50;58.10
37300;DHT22;23184;51.902;12.836;2023-04-19T09:56:46;19.00;61.00
37300;DHT22;23184;51.902;12.836;2023-04-19T09:59:12;19.10;58.80
37300;DHT22;23184;51.902;12.836;2023-04-19T10:01:51;18.30;58.90
37300;DHT22;23184;51.902;12.836;2023-04-19T10:04:19;18.00;59.70
37300;DHT22;23184;51.902;12.836;2023-04-19T10:06:50;19.00;61.10
37300;DHT22;23184;51.902;12.836;2023-04-19T10:09:17;19.50;59.00
37300;DHT22;23184;51.902;12.836;2023-04-19T10:11:47;20.40;57.90
37300;DHT22;23184;51.902;12.836;2023-04-19T10:14:14;20.70;55.90
37300;DHT22;23184;51.902;12.836;2023-04-19T10:16:40;21.60;56.80
37300;DHT22;23184;51.902;12.836;2023-04-19T10:19:14;21.00;53.50
37300;DHT22;23184;51.902;12.836;2023-04-19T10:21:41;20.40;55.70
37300;DHT22;23184;51.902;12.836;2023-04-19T10:24:12;20.70;56.50
37300;DHT22;23184;51.902;12.836;2023-04-19T10:29:54;21.30;55.40
37300;DHT22;23184;51.902;12.836;2023-04-19T10:32:19;21.40;54.50
37300;DHT22;23184;51.902;12.836;2023-04-19T10:34:45;21.20;54.40
37300;DHT22;23184;51.902;12.836;2023-04-19T10:37:13;20.40;54.80
37300;DHT22;23184;51.902;12.836;2023-04-19T10:39:40;19.20;55.80
37300;DHT22;23184;51.902;12.836;2023-04-19T10:42:06;18.10;58.50
37300;DHT22;23184;51.902;12.836;2023-04-19T10:44:32;17.00;60.10
37300;DHT22;23184;51.902;12.836;2023-04-19T10:46:58;16.20;64.40
37300;DHT22;23184;51.902;12.836;2023-04-19T10:49:25;15.70;65.10
37300;DHT22;23184;51.902;12.836;2023-04-19T10:51:52;15.20;66.20
37300;DHT22;23184;51.902;12.836;2023-04-19T10:54:29;15.00;68.00
37300;DHT22;23184;51.902;12.836;2023-04-19T10:57:03;16.00;66.00
37300;DHT22;23184;51.902;12.836;2023-04-19T10:59:33;17.30;63.60
37300;DHT22;23184;51.902;12.836;2023-04-19T11:02:42;17.70;61.70
37300;DHT22;23184;51.902;12.836;2023-04-19T11:07:16;17.60;61.10
37300;DHT22;23184;51.902;12.836;2023-04-19T11:09:46;16.80;61.20
37300;DHT22;23184;51.902;12.836;2023-04-19T11:12:17;16.40;63.40
37300;DHT22;23184;51.902;12.836;2023-04-19T11:14:45;15.90;64.10
37300;DHT22;23184;51.902;12.836;2023-04-19T11:17:25;16.50;65.30
37300;DHT22;23184;51.902;12.836;2023-04-19T11:20:11;18.00;62.30
37300;DHT22;23184;51.902;12.836;2023-04-19T11:22:41;18.70;60.10
37300;DHT22;23184;51.902;12.836;2023-04-19T11:25:12;19.20;58.40
37300;DHT22;23184;51.902;12.836;2023-04-19T11:27:39;18.70;57.70
37300;DHT22;23184;51.902;12.836;2023-04-19T11:32:33;19.40;56.60
37300;DHT22;23184;51.902;12.836;2023-04-19T11:35:08;20.60;56.80
37300;DHT22;23184;51.902;12.836;2023-04-19T11:37:35;20.70;54.20
37300;DHT22;23184;51.902;12.836;2023-04-19T11:40:01;19.70;53.50
37300;DHT22;23184;51.902;12.836;2023-04-19T11:42:27;19.80;55.10
37300;DHT22;23184;51.902;12.836;2023-04-19T11:44:53;19.70;56.10
37300;DHT22;23184;51.902;12.836;2023-04-19T11:47:20;20.10;55.80
37300;DHT22;23184;51.902;12.836;2023-04-19T11:49:46;19.80;54.40
37300;DHT22;23184;51.902;12.836;2023-04-19T11:52:20;19.10;56.40
37300;DHT22;23184;51.902;12.836;2023-04-19T11:54:45;18.00;57.30
37300;DHT22;23184;51.902;12.836;2023-04-19T11:57:11;17.90;59.70
37300;DHT22;23184;51.902;12.836;2023-04-19T11:59:37;18.40;59.00
37300;DHT22;23184;51.902;12.836;2023-04-19T12:02:10;17.80;59.90
37300;DHT22;23184;51.902;12.836;2023-04-19T12:04:37;17.30;60.10
37300;DHT22;23184;51.902;12.836;2023-04-19T12:07:04;17.60;63.30
37300;DHT22;23184;51.902;12.836;2023-04-19T12:09:32;18.30;60.50
37300;DHT22;23184;51.902;12.836;2023-04-19T12:11:57;18.90;58.80
37300;DHT22;23184;51.902;12.836;2023-04-19T12:14:23;19.20;58.70
37300;DHT22;23184;51.902;12.836;2023-04-19T12:17:08;19.30;57.50
37300;DHT22;23184;51.902;12.836;2023-04-19T12:19:41;18.40;56.80
37300;DHT22;23184;51.902;12.836;2023-04-19T12:22:11;17.80;59.90
37300;DHT22;23184;51.902;12.836;2023-04-19T12:24:37;17.70;60.90
37300;DHT22;23184;51.902;12.836;2023-04-19T12:27:04;18.40;61.60
37300;DHT22;23184;51.902;12.836;2023-04-19T12:29:30;18.40;58.70
37300;DHT22;23184;51.902;12.836;2023-04-19T12:31:55;18.60;60.30
37300;DHT22;23184;51.902;12.836;2023-04-19T12:34:21;18.20;60.10
37300;DHT22;23184;51.902;12.836;2023-04-19T12:36:46;17.30;60.90
37300;DHT22;23184;51.902;12.836;2023-04-19T12:39:12;16.30;62.30
37300;DHT22;23184;51.902;12.836;2023-04-19T12:41:37;15.80;65.30
37300;DHT22;23184;51.902;12.836;2023-04-19T12:44:03;15.50;65.80
37300;DHT22;23184;51.902;12.836;2023-04-19T12:46:28;15.70;67.60
37300;DHT22;23184;51.902;12.836;2023-04-19T12:48:54;16.20;68.20
37300;DHT22;23184;51.902;12.836;2023-04-19T12:51:19;16.70;65.50
37300;DHT22;23184;51.902;12.836;2023-04-19T12:53:48;17.10;63.70
37300;DHT22;23184;51.902;12.836;2023-04-19T12:56:14;16.90;64.40
37300;DHT22;23184;51.902;12.836;2023-04-19T12:58:41;16.90;64.30
37300;DHT22;23184;51.902;12.836;2023-04-19T13:01:07;18.10;62.60
37300;DHT22;23184;51.902;12.836;2023-04-19T13:03:32;19.10;58.20
37300;DHT22;23184;51.902;12.836;2023-04-19T13:06:01;19.10;59.70
37300;DHT22;23184;51.902;12.836;2023-04-19T13:08:27;18.80;58.30
37300;DHT22;23184;51.902;12.836;2023-04-19T13:10:54;18.50;58.70
37300;DHT22;23184;51.902;12.836;2023-04-19T13:13:19;17.60;60.10
37300;DHT22;23184;51.902;12.836;2023-04-19T13:15:45;16.80;60.80
37300;DHT22;23184;51.902;12.836;2023-04-19T13:18:10;16.20;62.70
37300;DHT22;23184;51.902;12.836;2023-04-19T13:20:36;15.70;64.70
37300;DHT22;23184;51.902;12.836;2023-04-19T13:23:01;15.40;66.00
37300;DHT22;23184;51.902;12.836;2023-04-19T13:25:27;15.10;67.10
37300;DHT22;23184;51.902;12.836;2023-04-19T13:27:52;14.70;67.80
37300;DHT22;23184;51.902;12.836;2023-04-19T13:30:18;14.20;69.80
37300;DHT22;23184;51.902;12.836;2023-04-19T13:32:43;13.70;74.40
37300;DHT22;23184;51.902;12.836;2023-04-19T13:35:09;13.20;75.80
37300;DHT22;23184;51.902;12.836;2023-04-19T13:37:34;13.10;77.00
37300;DHT22;23184;51.902;12.836;2023-04-19T13:40:00;12.80;75.80
37300;DHT22;23184;51.902;12.836;2023-04-19T13:42:25;12.70;76.50
37300;DHT22;23184;51.902;12.836;2023-04-19T13:44:53;12.60;77.20
37300;DHT22;23184;51.902;12.836;2023-04-19T13:47:18;12.70;77.50
37300;DHT22;23184;51.902;12.836;2023-04-19T13:49:44;12.80;76.80
37300;DHT22;23184;51.902;12.836;2023-04-19T13:52:10;13.00;76.30
37300;DHT22;23184;51.902;12.836;2023-04-19T13:54:35;13.20;75.90
37300;DHT22;23184;51.902;12.836;2023-04-19T13:57:01;13.30;74.80
37300;DHT22;23184;51.902;12.836;2023-04-19T13:59:27;13.30;74.00
37300;DHT22;23184;51.902;12.836;2023-04-19T14:01:54;13.20;73.50
37300;DHT22;23184;51.902;12.836;2023-04-19T14:04:20;13.20;73.00
37300;DHT22;23184;51.902;12.836;2023-04-19T14:06:46;13.20;72.10
37300;DHT22;23184;51.902;12.836;2023-04-19T14:09:12;13.20;72.90
37300;DHT22;23184;51.902;12.836;2023-04-19T14:11:37;13.20;72.70
37300;DHT22;23184;51.902;12.836;2023-04-19T14:14:03;13.20;71.80
37300;DHT22;23184;51.902;12.836;2023-04-19T14:16:28;13.20;72.10
37300;DHT22;23184;51.902;12.836;2023-04-19T14:18:54;13.20;71.80
37300;DHT22;23184;51.902;12.836;2023-04-19T14:21:20;13.10;71.80
37300;DHT22;23184;51.902;12.836;2023-04-19T14:23:46;13.00;72.30
37300;DHT22;23184;51.902;12.836;2023-04-19T14:26:11;12.90;73.90
37300;DHT22;23184;51.902;12.836;2023-04-19T14:28:37;12.90;73.70
37300;DHT22;23184;51.902;12.836;2023-04-19T14:31:02;12.90;75.20
37300;DHT22;23184;51.902;12.836;2023-04-19T14:33:28;12.80;75.50
37300;DHT22;23184;51.902;12.836;2023-04-19T14:35:53;12.80;75.30
37300;DHT22;23184;51.902;12.836;2023-04-19T14:38:19;12.50;75.70
37300;DHT22;23184;51.902;12.836;2023-04-19T14:40:45;12.50;75.80
37300;DHT22;23184;51.902;12.836;2023-04-19T14:43:13;12.60;77.40
37300;DHT22;23184;51.902;12.836;2023-04-19T14:45:40;12.60;78.90
37300;DHT22;23184;51.902;12.836;2023-04-19T14:48:06;12.80;80.00
37300;DHT22;23184;51.902;12.836;2023-04-19T14:50:31;12.90;77.50
37300;DHT22;23184;51.902;12.836;2023-04-19T14:52:57;12.90;75.60
37300;DHT22;23184;51.902;12.836;2023-04-19T14:55:23;12.90;76.70
37300;DHT22;23184;51.902;12.836;2023-04-19T14:57:51;12.80;76.30
37300;DHT22;23184;51.902;12.836;2023-04-19T15:00:16;12.80;75.60
37300;DHT22;23184;51.902;12.836;2023-04-19T15:02:42;12.60;75.60
37300;DHT22;23184;51.902;12.836;2023-04-19T15:05:08;12.30;77.40
37300;DHT22;23184;51.902;12.836;2023-04-19T15:07:33;12.00;79.20
37300;DHT22;23184;51.902;12.836;2023-04-19T15:09:59;12.00;79.10
37300;DHT22;23184;51.902;12.836;2023-04-19T15:12:24;12.00;79.90
37300;DHT22;23184;51.902;12.836;2023-04-19T15:14:50;11.80;82.10
37300;DHT22;23184;51.902;12.836;2023-04-19T15:17:15;11.80;83.80
37300;DHT22;23184;51.902;12.836;2023-04-19T15:19:41;11.70;87.50
37300;DHT22;23184;51.902;12.836;2023-04-19T15:22:06;11.60;87.50
37300;DHT22;23184;51.902;12.836;2023-04-19T15:24:35;11.50;87.50
37300;DHT22;23184;51.902;12.836;2023-04-19T15:27:00;11.30;87.50
37300;DHT22;23184;51.902;12.836;2023-04-19T15:29:26;11.30;89.10